sensor_id;sensor_type;location;lat;lon;timestamp;P1;durP1;ratioP1;P2;durP2;ratioP2
35496;SDS011;21609;49.298;6.844;2023-03-14T00:01:50;0.40;;;0.40;;
35496;SDS011;21609;49.298;6.844;2023-03-14T00:04:15;0.50;;;0.50;;
35496;SDS011;21609;49.298;6.844;2023-03-14T00:06:41;2.10;;;0.90;;
35496;SDS011;21609;49.298;6.844;2023-03-14T00:09:07;0.70;;;0.70;;
35496;SDS011;21609;49.298;6.844;2023-03-14T00:11:32;1.70;;;0.57;;
35496;SDS011;21609;49.298;6.844;2023-03-14T00:13:58;0.80;;;0.65;;
35496;SDS011;21609;49.298;6.844;2023-03-14T00:16:25;1.40;;;0.60;;
35496;SDS011;21609;49.298;6.844;2023-03-14T00:18:51;0.90;;;0.70;;
35496;SDS011;21609;49.298;6.844;2023-03-14T00:21:17;0.88;;;0.60;;
35496;SDS011;21609;49.298;6.844;2023-03-14T00:23:43;2.55;;;0.90;;
35496;SDS011;21609;49.298;6.844;2023-03-14T00:26:12;0.95;;;0.52;;
35496;SDS011;21609;49.298;6.844;2023-03-14T00:28:40;0.70;;;0.70;;
35496;SDS011;21609;49.298;6.844;2023-03-14T00:31:07;1.85;;;0.60;;
35496;SDS011;21609;49.298;6.844;2023-03-14T00:33:34;1.27;;;0.70;;
35496;SDS011;21609;49.298;6.844;2023-03-14T00:36:01;1.13;;;0.82;;
35496;SDS011;21609;49.298;6.844;2023-03-14T00:38:29;0.93;;;0.77;;
35496;SDS011;21609;49.298;6.844;2023-03-14T00:40:55;0.60;;;0.60;;
35496;SDS011;21609;49.298;6.844;2023-03-14T00:43:21;1.63;;;0.60;;
35496;SDS011;21609;49.298;6.844;2023-03-14T00:45:47;1.17;;;1.02;;
35496;SDS011;21609;49.298;6.844;2023-03-14T00:48:14;1.23;;;0.80;;
35496;SDS011;21609;49.298;6.844;2023-03-14T00:50:39;0.75;;;0.75;;
35496;SDS011;21609;49.298;6.844;2023-03-14T00:53:05;1.00;;;0.68;;
35496;SDS011;21609;49.298;6.844;2023-03-14T00:55:30;0.73;;;0.50;;
35496;SDS011;21609;49.298;6.844;2023-03-14T00:57:56;1.23;;;0.70;;
35496;SDS011;21609;49.298;6.844;2023-03-14T01:00:22;1.48;;;1.00;;
35496;SDS011;21609;49.298;6.844;2023-03-14T01:02:47;0.50;;;0.50;;
35496;SDS011;21609;49.298;6.844;2023-03-14T01:05:13;0.77;;;0.60;;
35496;SDS011;21609;49.298;6.844;2023-03-14T01:07:38;0.60;;;0.60;;
35496;SDS011;21609;49.298;6.844;2023-03-14T01:10:04;1.10;;;0.95;;
35496;SDS011;21609;49.298;6.844;2023-03-14T01:12:31;1.15;;;0.70;;
35496;SDS011;21609;49.298;6.844;2023-03-14T01:14:56;1.80;;;0.70;;
35496;SDS011;21609;49.298;6.844;2023-03-14T01:17:22;0.77;;;0.60;;
35496;SDS011;21609;49.298;6.844;2023-03-14T01:19:48;0.55;;;0.50;;
35496;SDS011;21609;49.298;6.844;2023-03-14T01:22:13;0.77;;;0.63;;
35496;SDS011;21609;49.298;6.844;2023-03-14T01:24:39;1.30;;;0.70;;
35496;SDS011;21609;49.298;6.844;2023-03-14T01:27:05;1.25;;;0.80;;
35496;SDS011;21609;49.298;6.844;2023-03-14T01:29:30;0.98;;;0.77;;
35496;SDS011;21609;49.298;6.844;2023-03-14T01:31:56;0.90;;;0.60;;
35496;SDS011;21609;49.298;6.844;2023-03-14T01:34:22;0.85;;;0.60;;
35496;SDS011;21609;49.298;6.844;2023-03-14T01:36:47;0.65;;;0.57;;
35496;SDS011;21609;49.298;6.844;2023-03-14T01:39:13;2.70;;;1.20;;
35496;SDS011;21609;49.298;6.844;2023-03-14T01:41:38;1.33;;;0.88;;
35496;SDS011;21609;49.298;6.844;2023-03-14T01:44:05;0.80;;;0.60;;
35496;SDS011;21609;49.298;6.844;2023-03-14T01:49:44;1.73;;;0.93;;
35496;SDS011;21609;49.298;6.844;2023-03-14T01:52:03;0.73;;;0.63;;
35496;SDS011;21609;49.298;6.844;2023-03-14T01:54:46;1.30;;;0.70;;
35496;SDS011;21609;49.298;6.844;2023-03-14T01:57:37;0.77;;;0.60;;
35496;SDS011;21609;49.298;6.844;2023-03-14T02:00:06;0.93;;;0.85;;
35496;SDS011;21609;49.298;6.844;2023-03-14T02:02:37;0.77;;;0.57;;
35496;SDS011;21609;49.298;6.844;2023-03-14T02:05:05;1.17;;;0.85;;
35496;SDS011;21609;49.298;6.844;2023-03-14T02:08:05;0.80;;;0.80;;
35496;SDS011;21609;49.298;6.844;2023-03-14T02:10:28;1.35;;;0.70;;
35496;SDS011;21609;49.298;6.844;2023-03-14T02:12:59;2.25;;;0.57;;
35496;SDS011;21609;49.298;6.844;2023-03-14T02:15:27;1.30;;;0.68;;
35496;SDS011;21609;49.298;6.844;2023-03-14T02:17:53;1.10;;;0.65;;
35496;SDS011;21609;49.298;6.844;2023-03-14T02:23:37;0.45;;;0.40;;
35496;SDS011;21609;49.298;6.844;2023-03-14T02:26:28;1.02;;;0.77;;
35496;SDS011;21609;49.298;6.844;2023-03-14T02:29:01;1.38;;;0.85;;
35496;SDS011;21609;49.298;6.844;2023-03-14T02:31:27;1.08;;;0.73;;
35496;SDS011;21609;49.298;6.844;2023-03-14T02:33:52;0.85;;;0.70;;
35496;SDS011;21609;49.298;6.844;2023-03-14T02:36:19;2.15;;;0.77;;
35496;SDS011;21609;49.298;6.844;2023-03-14T02:41:30;1.77;;;0.65;;
35496;SDS011;21609;49.298;6.844;2023-03-14T02:43:55;1.20;;;0.90;;
35496;SDS011;21609;49.298;6.844;2023-03-14T02:46:21;0.63;;;0.60;;
35496;SDS011;21609;49.298;6.844;2023-03-14T02:48:57;1.40;;;0.65;;
35496;SDS011;21609;49.298;6.844;2023-03-14T02:51:26;0.60;;;0.60;;
35496;SDS011;21609;49.298;6.844;2023-03-14T02:53:53;1.00;;;0.90;;
35496;SDS011;21609;49.298;6.844;2023-03-14T02:56:19;2.28;;;0.65;;
35496;SDS011;21609;49.298;6.844;2023-03-14T02:58:44;0.60;;;0.60;;
35496;SDS011;21609;49.298;6.844;2023-03-14T03:01:10;0.50;;;0.50;;
35496;SDS011;21609;49.298;6.844;2023-03-14T03:03:35;1.75;;;0.65;;
35496;SDS011;21609;49.298;6.844;2023-03-14T03:06:01;1.73;;;0.90;;
35496;SDS011;21609;49.298;6.844;2023-03-14T03:08:27;1.08;;;0.77;;
35496;SDS011;21609;49.298;6.844;2023-03-14T03:10:53;1.88;;;0.65;;
35496;SDS011;21609;49.298;6.844;2023-03-14T03:13:19;0.98;;;0.60;;
35496;SDS011;21609;49.298;6.844;2023-03-14T03:15:45;1.02;;;0.65;;
35496;SDS011;21609;49.298;6.844;2023-03-14T03:18:10;2.03;;;0.57;;
35496;SDS011;21609;49.298;6.844;2023-03-14T03:20:36;3.55;;;1.10;;
35496;SDS011;21609;49.298;6.844;2023-03-14T03:23:03;0.88;;;0.70;;
35496;SDS011;21609;49.298;6.844;2023-03-14T03:25:28;0.73;;;0.60;;
35496;SDS011;21609;49.298;6.844;2023-03-14T03:27:54;0.70;;;0.70;;
35496;SDS011;21609;49.298;6.844;2023-03-14T03:30:20;0.93;;;0.50;;
35496;SDS011;21609;49.298;6.844;2023-03-14T03:32:46;1.02;;;0.80;;
35496;SDS011;21609;49.298;6.844;2023-03-14T03:35:12;1.13;;;0.60;;
35496;SDS011;21609;49.298;6.844;2023-03-14T03:37:38;1.02;;;0.50;;
35496;SDS011;21609;49.298;6.844;2023-03-14T03:40:04;1.13;;;0.50;;
35496;SDS011;21609;49.298;6.844;2023-03-14T03:42:31;1.58;;;0.70;;
35496;SDS011;21609;49.298;6.844;2023-03-14T03:44:58;1.10;;;0.60;;
35496;SDS011;21609;49.298;6.844;2023-03-14T03:47:24;0.85;;;0.80;;
35496;SDS011;21609;49.298;6.844;2023-03-14T03:49:50;0.60;;;0.60;;
35496;SDS011;21609;49.298;6.844;2023-03-14T03:52:15;0.55;;;0.50;;
35496;SDS011;21609;49.298;6.844;2023-03-14T03:54:41;2.42;;;0.73;;
35496;SDS011;21609;49.298;6.844;2023-03-14T03:57:07;1.98;;;0.88;;
35496;SDS011;21609;49.298;6.844;2023-03-14T03:59:32;0.82;;;0.70;;
35496;SDS011;21609;49.298;6.844;2023-03-14T04:01:58;1.73;;;0.82;;
35496;SDS011;21609;49.298;6.844;2023-03-14T04:04:23;0.82;;;0.55;;
35496;SDS011;21609;49.298;6.844;2023-03-14T04:06:49;1.38;;;0.80;;
35496;SDS011;21609;49.298;6.844;2023-03-14T04:09:14;1.10;;;0.75;;
35496;SDS011;21609;49.298;6.844;2023-03-14T04:11:40;1.85;;;0.95;;
35496;SDS011;21609;49.298;6.844;2023-03-14T04:14:06;1.52;;;0.68;;
35496;SDS011;21609;49.298;6.844;2023-03-14T04:16:32;0.63;;;0.60;;
35496;SDS011;21609;49.298;6.844;2023-03-14T04:18:58;0.73;;;0.60;;
35496;SDS011;21609;49.298;6.844;2023-03-14T04:21:23;2.33;;;0.60;;
35496;SDS011;21609;49.298;6.844;2023-03-14T04:23:49;1.42;;;0.70;;
35496;SDS011;21609;49.298;6.844;2023-03-14T04:26:15;1.20;;;0.70;;
35496;SDS011;21609;49.298;6.844;2023-03-14T04:28:41;1.45;;;0.60;;
35496;SDS011;21609;49.298;6.844;2023-03-14T04:31:10;1.25;;;0.63;;
35496;SDS011;21609;49.298;6.844;2023-03-14T04:33:46;1.02;;;0.57;;
35496;SDS011;21609;49.298;6.844;2023-03-14T04:36:12;0.75;;;0.57;;
35496;SDS011;21609;49.298;6.844;2023-03-14T04:38:38;0.57;;;0.57;;
35496;SDS011;21609;49.298;6.844;2023-03-14T04:41:04;0.85;;;0.57;;
35496;SDS011;21609;49.298;6.844;2023-03-14T04:43:30;2.20;;;0.80;;
35496;SDS011;21609;49.298;6.844;2023-03-14T04:45:56;0.93;;;0.60;;
35496;SDS011;21609;49.298;6.844;2023-03-14T04:48:23;1.27;;;0.80;;
35496;SDS011;21609;49.298;6.844;2023-03-14T04:50:49;1.52;;;0.77;;
35496;SDS011;21609;49.298;6.844;2023-03-14T04:53:15;1.50;;;0.80;;
35496;SDS011;21609;49.298;6.844;2023-03-14T04:55:42;0.55;;;0.40;;
35496;SDS011;21609;49.298;6.844;2023-03-14T04:58:12;1.08;;;0.77;;
35496;SDS011;21609;49.298;6.844;2023-03-14T05:00:38;0.52;;;0.50;;
35496;SDS011;21609;49.298;6.844;2023-03-14T05:03:03;1.50;;;0.63;;
35496;SDS011;21609;49.298;6.844;2023-03-14T05:05:29;0.90;;;0.70;;
35496;SDS011;21609;49.298;6.844;2023-03-14T05:07:54;0.90;;;0.50;;
35496;SDS011;21609;49.298;6.844;2023-03-14T05:10:20;0.70;;;0.47;;
35496;SDS011;21609;49.298;6.844;2023-03-14T05:12:45;0.43;;;0.43;;
35496;SDS011;21609;49.298;6.844;2023-03-14T05:15:11;0.57;;;0.40;;
35496;SDS011;21609;49.298;6.844;2023-03-14T05:17:36;0.57;;;0.43;;
35496;SDS011;21609;49.298;6.844;2023-03-14T05:20:02;1.23;;;0.50;;
35496;SDS011;21609;49.298;6.844;2023-03-14T05:22:33;1.13;;;0.60;;
35496;SDS011;21609;49.298;6.844;2023-03-14T05:24:59;1.05;;;0.57;;
35496;SDS011;21609;49.298;6.844;2023-03-14T05:27:24;1.10;;;0.50;;
35496;SDS011;21609;49.298;6.844;2023-03-14T05:29:50;0.73;;;0.30;;
35496;SDS011;21609;49.298;6.844;2023-03-14T05:32:16;1.10;;;0.50;;
35496;SDS011;21609;49.298;6.844;2023-03-14T05:34:41;1.17;;;0.52;;
35496;SDS011;21609;49.298;6.844;2023-03-14T05:37:07;0.73;;;0.63;;
35496;SDS011;21609;49.298;6.844;2023-03-14T05:39:32;1.13;;;0.77;;
35496;SDS011;21609;49.298;6.844;2023-03-14T05:41:58;0.90;;;0.55;;
35496;SDS011;21609;49.298;6.844;2023-03-14T05:44:23;0.45;;;0.35;;
35496;SDS011;21609;49.298;6.844;2023-03-14T05:46:49;0.65;;;0.63;;
35496;SDS011;21609;49.298;6.844;2023-03-14T05:49:14;1.05;;;0.70;;
35496;SDS011;21609;49.298;6.844;2023-03-14T05:51:40;0.93;;;0.60;;
35496;SDS011;21609;49.298;6.844;2023-03-14T05:54:06;0.85;;;0.50;;
35496;SDS011;21609;49.298;6.844;2023-03-14T05:56:32;1.17;;;0.60;;
35496;SDS011;21609;49.298;6.844;2023-03-14T05:58:58;0.55;;;0.55;;
35496;SDS011;21609;49.298;6.844;2023-03-14T06:01:23;1.55;;;0.75;;
35496;SDS011;21609;49.298;6.844;2023-03-14T06:03:49;1.27;;;0.60;;
35496;SDS011;21609;49.298;6.844;2023-03-14T06:06:14;1.20;;;0.70;;
35496;SDS011;21609;49.298;6.844;2023-03-14T06:08:41;1.05;;;0.60;;
35496;SDS011;21609;49.298;6.844;2023-03-14T06:11:07;0.88;;;0.50;;
35496;SDS011;21609;49.298;6.844;2023-03-14T06:13:33;1.38;;;0.60;;
35496;SDS011;21609;49.298;6.844;2023-03-14T06:15:58;2.05;;;0.70;;
35496;SDS011;21609;49.298;6.844;2023-03-14T06:18:24;1.92;;;0.63;;
35496;SDS011;21609;49.298;6.844;2023-03-14T06:20:52;1.40;;;0.60;;
35496;SDS011;21609;49.298;6.844;2023-03-14T06:23:19;0.68;;;0.45;;
35496;SDS011;21609;49.298;6.844;2023-03-14T06:25:44;0.80;;;0.70;;
35496;SDS011;21609;49.298;6.844;2023-03-14T06:28:10;0.95;;;0.55;;
35496;SDS011;21609;49.298;6.844;2023-03-14T06:30:35;0.80;;;0.52;;
35496;SDS011;21609;49.298;6.844;2023-03-14T06:33:01;0.75;;;0.40;;
35496;SDS011;21609;49.298;6.844;2023-03-14T06:35:27;2.05;;;0.50;;
35496;SDS011;21609;49.298;6.844;2023-03-14T06:37:52;2.83;;;0.55;;
35496;SDS011;21609;49.298;6.844;2023-03-14T06:40:18;1.23;;;0.65;;
35496;SDS011;21609;49.298;6.844;2023-03-14T06:42:44;1.08;;;0.60;;
35496;SDS011;21609;49.298;6.844;2023-03-14T06:45:10;3.22;;;1.00;;
35496;SDS011;21609;49.298;6.844;2023-03-14T06:47:36;9.60;;;1.17;;
35496;SDS011;21609;49.298;6.844;2023-03-14T06:50:03;0.60;;;0.40;;
35496;SDS011;21609;49.298;6.844;2023-03-14T06:52:29;1.85;;;0.50;;
35496;SDS011;21609;49.298;6.844;2023-03-14T06:54:55;3.08;;;0.65;;
35496;SDS011;21609;49.298;6.844;2023-03-14T06:57:20;3.38;;;0.75;;
35496;SDS011;21609;49.298;6.844;2023-03-14T06:59:46;1.23;;;0.60;;
35496;SDS011;21609;49.298;6.844;2023-03-14T07:02:12;1.85;;;0.90;;
35496;SDS011;21609;49.298;6.844;2023-03-14T07:04:38;1.83;;;0.70;;
35496;SDS011;21609;49.298;6.844;2023-03-14T07:07:03;1.73;;;0.50;;
35496;SDS011;21609;49.298;6.844;2023-03-14T07:09:29;0.90;;;0.50;;
35496;SDS011;21609;49.298;6.844;2023-03-14T07:11:54;2.10;;;0.52;;
35496;SDS011;21609;49.298;6.844;2023-03-14T07:14:20;1.77;;;0.80;;
35496;SDS011;21609;49.298;6.844;2023-03-14T07:16:46;1.35;;;0.80;;
35496;SDS011;21609;49.298;6.844;2023-03-14T07:19:11;1.27;;;0.60;;
35496;SDS011;21609;49.298;6.844;2023-03-14T07:21:37;0.73;;;0.40;;
35496;SDS011;21609;49.298;6.844;2023-03-14T07:24:02;1.85;;;0.77;;
35496;SDS011;21609;49.298;6.844;2023-03-14T07:26:28;0.82;;;0.40;;
35496;SDS011;21609;49.298;6.844;2023-03-14T07:28:54;0.98;;;0.50;;
35496;SDS011;21609;49.298;6.844;2023-03-14T07:31:19;1.02;;;0.50;;
35496;SDS011;21609;49.298;6.844;2023-03-14T07:33:45;0.55;;;0.47;;
35496;SDS011;21609;49.298;6.844;2023-03-14T07:36:11;1.60;;;0.68;;
35496;SDS011;21609;49.298;6.844;2023-03-14T07:38:36;1.17;;;0.65;;
35496;SDS011;21609;49.298;6.844;2023-03-14T07:41:03;0.55;;;0.32;;
35496;SDS011;21609;49.298;6.844;2023-03-14T07:43:30;2.03;;;0.50;;
35496;SDS011;21609;49.298;6.844;2023-03-14T07:45:56;0.80;;;0.50;;
35496;SDS011;21609;49.298;6.844;2023-03-14T07:48:21;0.60;;;0.50;;
35496;SDS011;21609;49.298;6.844;2023-03-14T07:50:50;0.68;;;0.30;;
35496;SDS011;21609;49.298;6.844;2023-03-14T07:53:16;1.08;;;0.55;;
35496;SDS011;21609;49.298;6.844;2023-03-14T07:55:42;0.75;;;0.30;;
35496;SDS011;21609;49.298;6.844;2023-03-14T07:58:08;2.28;;;0.80;;
35496;SDS011;21609;49.298;6.844;2023-03-14T08:00:34;1.33;;;0.40;;
35496;SDS011;21609;49.298;6.844;2023-03-14T08:02:59;2.50;;;0.43;;
35496;SDS011;21609;49.298;6.844;2023-03-14T08:05:25;1.40;;;0.63;;
35496;SDS011;21609;49.298;6.844;2023-03-14T08:07:50;3.00;;;0.50;;
35496;SDS011;21609;49.298;6.844;2023-03-14T08:10:16;1.20;;;0.60;;
35496;SDS011;21609;49.298;6.844;2023-03-14T08:12:48;0.30;;;0.30;;
35496;SDS011;21609;49.298;6.844;2023-03-14T08:15:15;0.85;;;0.60;;
35496;SDS011;21609;49.298;6.844;2023-03-14T08:17:41;2.47;;;0.50;;
35496;SDS011;21609;49.298;6.844;2023-03-14T08:20:06;4.75;;;0.90;;
35496;SDS011;21609;49.298;6.844;2023-03-14T08:22:33;1.90;;;0.60;;
35496;SDS011;21609;49.298;6.844;2023-03-14T08:24:59;1.15;;;0.65;;
35496;SDS011;21609;49.298;6.844;2023-03-14T08:27:25;2.15;;;0.70;;
35496;SDS011;21609;49.298;6.844;2023-03-14T08:29:50;3.25;;;1.10;;
35496;SDS011;21609;49.298;6.844;2023-03-14T08:32:16;3.63;;;1.52;;
35496;SDS011;21609;49.298;6.844;2023-03-14T08:34:41;1.92;;;0.90;;
35496;SDS011;21609;49.298;6.844;2023-03-14T08:37:07;4.05;;;1.33;;
35496;SDS011;21609;49.298;6.844;2023-03-14T08:39:32;3.78;;;1.55;;
35496;SDS011;21609;49.298;6.844;2023-03-14T08:41:58;6.53;;;1.73;;
35496;SDS011;21609;49.298;6.844;2023-03-14T08:44:23;2.25;;;1.60;;
35496;SDS011;21609;49.298;6.844;2023-03-14T08:46:49;6.65;;;1.55;;
35496;SDS011;21609;49.298;6.844;2023-03-14T08:49:14;5.47;;;1.88;;
35496;SDS011;21609;49.298;6.844;2023-03-14T08:51:40;4.78;;;1.38;;
35496;SDS011;21609;49.298;6.844;2023-03-14T08:54:05;6.95;;;1.55;;
35496;SDS011;21609;49.298;6.844;2023-03-14T08:56:31;2.78;;;1.40;;
35496;SDS011;21609;49.298;6.844;2023-03-14T08:58:57;1.92;;;1.00;;
35496;SDS011;21609;49.298;6.844;2023-03-14T09:01:22;5.20;;;0.98;;
35496;SDS011;21609;49.298;6.844;2023-03-14T09:03:50;2.72;;;1.60;;
35496;SDS011;21609;49.298;6.844;2023-03-14T09:06:15;4.80;;;1.05;;
35496;SDS011;21609;49.298;6.844;2023-03-14T09:08:44;3.92;;;1.40;;
35496;SDS011;21609;49.298;6.844;2023-03-14T09:11:10;2.70;;;1.45;;
35496;SDS011;21609;49.298;6.844;2023-03-14T09:13:36;4.22;;;1.17;;
35496;SDS011;21609;49.298;6.844;2023-03-14T09:16:02;2.88;;;1.02;;
35496;SDS011;21609;49.298;6.844;2023-03-14T09:18:28;5.10;;;1.20;;
35496;SDS011;21609;49.298;6.844;2023-03-14T09:20:54;1.60;;;1.05;;
35496;SDS011;21609;49.298;6.844;2023-03-14T09:23:20;4.60;;;1.27;;
35496;SDS011;21609;49.298;6.844;2023-03-14T09:25:46;3.15;;;1.05;;
35496;SDS011;21609;49.298;6.844;2023-03-14T09:28:11;2.63;;;0.80;;
35496;SDS011;21609;49.298;6.844;2023-03-14T09:30:37;3.67;;;1.23;;
35496;SDS011;21609;49.298;6.844;2023-03-14T09:33:03;1.85;;;0.73;;
35496;SDS011;21609;49.298;6.844;2023-03-14T09:35:29;1.65;;;0.88;;
35496;SDS011;21609;49.298;6.844;2023-03-14T09:37:54;3.40;;;1.02;;
35496;SDS011;21609;49.298;6.844;2023-03-14T09:40:21;1.30;;;0.88;;
35496;SDS011;21609;49.298;6.844;2023-03-14T09:42:50;1.88;;;0.75;;
35496;SDS011;21609;49.298;6.844;2023-03-14T09:45:27;3.28;;;1.17;;
35496;SDS011;21609;49.298;6.844;2023-03-14T09:48:01;4.90;;;1.13;;
35496;SDS011;21609;49.298;6.844;2023-03-14T09:51:03;5.28;;;1.58;;
35496;SDS011;21609;49.298;6.844;2023-03-14T09:53:26;4.57;;;1.20;;
35496;SDS011;21609;49.298;6.844;2023-03-14T09:55:56;5.07;;;1.20;;
35496;SDS011;21609;49.298;6.844;2023-03-14T09:58:23;5.72;;;1.08;;
35496;SDS011;21609;49.298;6.844;2023-03-14T10:00:50;2.28;;;1.13;;
35496;SDS011;21609;49.298;6.844;2023-03-14T10:05:49;3.53;;;0.70;;
35496;SDS011;21609;49.298;6.844;2023-03-14T10:08:15;1.83;;;0.98;;
35496;SDS011;21609;49.298;6.844;2023-03-14T10:10:40;1.63;;;0.85;;
35496;SDS011;21609;49.298;6.844;2023-03-14T10:15:35;1.80;;;1.13;;
35496;SDS011;21609;49.298;6.844;2023-03-14T10:18:02;3.65;;;1.33;;
35496;SDS011;21609;49.298;6.844;2023-03-14T10:25:28;5.55;;;1.02;;
35496;SDS011;21609;49.298;6.844;2023-03-14T10:27:55;2.90;;;0.90;;
35496;SDS011;21609;49.298;6.844;2023-03-14T10:30:29;2.85;;;0.82;;
35496;SDS011;21609;49.298;6.844;2023-03-14T10:33:19;1.63;;;0.93;;
35496;SDS011;21609;49.298;6.844;2023-03-14T10:35:52;1.25;;;0.70;;
35496;SDS011;21609;49.298;6.844;2023-03-14T10:38:19;2.15;;;0.70;;
35496;SDS011;21609;49.298;6.844;2023-03-14T10:43:30;3.25;;;0.60;;
35496;SDS011;21609;49.298;6.844;2023-03-14T10:45:58;4.25;;;0.85;;
35496;SDS011;21609;49.298;6.844;2023-03-14T10:48:34;0.65;;;0.65;;
35496;SDS011;21609;49.298;6.844;2023-03-14T10:53:37;3.13;;;0.77;;
35496;SDS011;21609;49.298;6.844;2023-03-14T10:56:06;1.65;;;1.00;;
35496;SDS011;21609;49.298;6.844;2023-03-14T10:58:33;1.20;;;0.70;;
35496;SDS011;21609;49.298;6.844;2023-03-14T11:03:56;1.10;;;0.60;;
35496;SDS011;21609;49.298;6.844;2023-03-14T11:12:56;1.02;;;0.70;;
35496;SDS011;21609;49.298;6.844;2023-03-14T11:15:19;0.80;;;0.73;;
35496;SDS011;21609;49.298;6.844;2023-03-14T11:23:29;2.67;;;0.90;;
35496;SDS011;21609;49.298;6.844;2023-03-14T11:33:46;0.68;;;0.63;;
35496;SDS011;21609;49.298;6.844;2023-03-14T11:36:39;1.98;;;0.65;;
35496;SDS011;21609;49.298;6.844;2023-03-14T11:39:17;2.30;;;0.63;;
35496;SDS011;21609;49.298;6.844;2023-03-14T11:41:45;3.33;;;0.47;;
35496;SDS011;21609;49.298;6.844;2023-03-14T11:44:17;0.70;;;0.50;;
35496;SDS011;21609;49.298;6.844;2023-03-14T11:49:36;6.35;;;0.70;;
35496;SDS011;21609;49.298;6.844;2023-03-14T11:52:11;2.45;;;0.90;;
35496;SDS011;21609;49.298;6.844;2023-03-14T11:54:55;4.15;;;1.17;;
35496;SDS011;21609;49.298;6.844;2023-03-14T11:57:25;9.73;;;1.73;;
35496;SDS011;21609;49.298;6.844;2023-03-14T12:10:39;1.58;;;0.88;;
35496;SDS011;21609;49.298;6.844;2023-03-14T12:13:17;4.30;;;1.20;;
35496;SDS011;21609;49.298;6.844;2023-03-14T12:15:54;5.35;;;1.15;;
35496;SDS011;21609;49.298;6.844;2023-03-14T12:18:36;4.80;;;1.17;;
35496;SDS011;21609;49.298;6.844;2023-03-14T12:21:04;8.85;;;0.93;;
35496;SDS011;21609;49.298;6.844;2023-03-14T12:23:51;3.88;;;0.88;;
35496;SDS011;21609;49.298;6.844;2023-03-14T12:26:22;7.07;;;1.23;;
35496;SDS011;21609;49.298;6.844;2023-03-14T12:34:03;0.95;;;0.70;;
35496;SDS011;21609;49.298;6.844;2023-03-14T12:39:43;2.67;;;1.20;;
35496;SDS011;21609;49.298;6.844;2023-03-14T12:42:20;3.30;;;1.42;;
35496;SDS011;21609;49.298;6.844;2023-03-14T12:47:54;6.80;;;1.50;;
35496;SDS011;21609;49.298;6.844;2023-03-14T12:50:53;3.10;;;1.40;;
35496;SDS011;21609;49.298;6.844;2023-03-14T12:53:28;4.55;;;1.13;;
35496;SDS011;21609;49.298;6.844;2023-03-14T12:56:18;8.43;;;1.42;;
35496;SDS011;21609;49.298;6.844;2023-03-14T13:04:33;2.50;;;1.00;;
35496;SDS011;21609;49.298;6.844;2023-03-14T13:10:19;2.35;;;0.80;;
35496;SDS011;21609;49.298;6.844;2023-03-14T13:15:26;5.05;;;1.08;;
35496;SDS011;21609;49.298;6.844;2023-03-14T13:20:48;2.45;;;0.93;;
35496;SDS011;21609;49.298;6.844;2023-03-14T13:23:39;5.95;;;1.05;;
35496;SDS011;21609;49.298;6.844;2023-03-14T13:26:06;3.13;;;0.70;;
35496;SDS011;21609;49.298;6.844;2023-03-14T13:28:38;3.08;;;0.93;;
35496;SDS011;21609;49.298;6.844;2023-03-14T13:31:04;1.67;;;0.70;;
35496;SDS011;21609;49.298;6.844;2023-03-14T13:33:32;4.43;;;1.30;;
35496;SDS011;21609;49.298;6.844;2023-03-14T13:35:59;5.78;;;1.42;;
35496;SDS011;21609;49.298;6.844;2023-03-14T13:38:28;3.00;;;1.00;;
35496;SDS011;21609;49.298;6.844;2023-03-14T13:40:56;5.53;;;0.82;;
35496;SDS011;21609;49.298;6.844;2023-03-14T13:43:33;3.53;;;0.85;;
35496;SDS011;21609;49.298;6.844;2023-03-14T13:46:10;1.73;;;0.80;;
35496;SDS011;21609;49.298;6.844;2023-03-14T13:48:46;1.58;;;0.90;;
35496;SDS011;21609;49.298;6.844;2023-03-14T13:51:16;1.90;;;1.02;;
35496;SDS011;21609;49.298;6.844;2023-03-14T13:53:46;4.30;;;1.10;;
35496;SDS011;21609;49.298;6.844;2023-03-14T13:56:14;1.77;;;0.80;;
35496;SDS011;21609;49.298;6.844;2023-03-14T13:58:42;1.23;;;0.65;;
35496;SDS011;21609;49.298;6.844;2023-03-14T14:01:18;3.78;;;0.82;;
35496;SDS011;21609;49.298;6.844;2023-03-14T14:03:58;2.42;;;0.60;;
35496;SDS011;21609;49.298;6.844;2023-03-14T14:06:31;3.42;;;0.90;;
35496;SDS011;21609;49.298;6.844;2023-03-14T14:09:00;2.47;;;0.93;;
35496;SDS011;21609;49.298;6.844;2023-03-14T14:14:03;1.48;;;0.70;;
35496;SDS011;21609;49.298;6.844;2023-03-14T14:16:31;4.60;;;1.33;;
35496;SDS011;21609;49.298;6.844;2023-03-14T14:18:57;3.42;;;0.57;;
35496;SDS011;21609;49.298;6.844;2023-03-14T14:21:24;2.70;;;0.90;;
35496;SDS011;21609;49.298;6.844;2023-03-14T14:23:50;1.58;;;0.60;;
35496;SDS011;21609;49.298;6.844;2023-03-14T14:26:16;2.40;;;0.60;;
35496;SDS011;21609;49.298;6.844;2023-03-14T14:28:44;2.10;;;1.05;;
35496;SDS011;21609;49.298;6.844;2023-03-14T14:33:40;1.85;;;0.68;;
35496;SDS011;21609;49.298;6.844;2023-03-14T14:36:18;1.00;;;0.68;;
35496;SDS011;21609;49.298;6.844;2023-03-14T14:38:52;1.65;;;0.63;;
35496;SDS011;21609;49.298;6.844;2023-03-14T14:41:22;3.20;;;1.02;;
35496;SDS011;21609;49.298;6.844;2023-03-14T14:43:51;1.23;;;0.63;;
35496;SDS011;21609;49.298;6.844;2023-03-14T14:46:18;1.42;;;0.75;;
35496;SDS011;21609;49.298;6.844;2023-03-14T14:48:44;1.75;;;0.77;;
35496;SDS011;21609;49.298;6.844;2023-03-14T14:51:21;2.73;;;0.63;;
35496;SDS011;21609;49.298;6.844;2023-03-14T14:53:48;1.92;;;0.73;;
35496;SDS011;21609;49.298;6.844;2023-03-14T14:56:19;1.50;;;0.60;;
35496;SDS011;21609;49.298;6.844;2023-03-14T14:58:50;1.10;;;0.60;;
35496;SDS011;21609;49.298;6.844;2023-03-14T15:01:30;2.50;;;0.70;;
35496;SDS011;21609;49.298;6.844;2023-03-14T15:03:58;0.80;;;0.70;;
35496;SDS011;21609;49.298;6.844;2023-03-14T15:06:24;1.23;;;0.65;;
35496;SDS011;21609;49.298;6.844;2023-03-14T15:08:54;2.38;;;1.05;;
35496;SDS011;21609;49.298;6.844;2023-03-14T15:11:21;2.78;;;0.75;;
35496;SDS011;21609;49.298;6.844;2023-03-14T15:13:49;1.48;;;0.63;;
35496;SDS011;21609;49.298;6.844;2023-03-14T15:16:15;0.77;;;0.50;;
35496;SDS011;21609;49.298;6.844;2023-03-14T15:18:43;1.48;;;0.90;;
35496;SDS011;21609;49.298;6.844;2023-03-14T15:21:09;1.05;;;0.60;;
35496;SDS011;21609;49.298;6.844;2023-03-14T15:23:35;3.75;;;0.95;;
35496;SDS011;21609;49.298;6.844;2023-03-14T15:26:01;4.18;;;0.70;;
35496;SDS011;21609;49.298;6.844;2023-03-14T15:28:28;1.05;;;0.50;;
35496;SDS011;21609;49.298;6.844;2023-03-14T15:30:55;2.28;;;0.60;;
35496;SDS011;21609;49.298;6.844;2023-03-14T15:33:23;2.65;;;0.80;;
35496;SDS011;21609;49.298;6.844;2023-03-14T15:35:52;1.92;;;0.93;;
35496;SDS011;21609;49.298;6.844;2023-03-14T15:38:18;1.33;;;0.60;;
35496;SDS011;21609;49.298;6.844;2023-03-14T15:40:47;1.95;;;0.65;;
35496;SDS011;21609;49.298;6.844;2023-03-14T15:43:16;2.55;;;0.93;;
35496;SDS011;21609;49.298;6.844;2023-03-14T15:45:43;1.08;;;0.60;;
35496;SDS011;21609;49.298;6.844;2023-03-14T15:48:13;1.67;;;0.75;;
35496;SDS011;21609;49.298;6.844;2023-03-14T15:50:41;1.08;;;0.50;;
35496;SDS011;21609;49.298;6.844;2023-03-14T15:53:07;1.02;;;0.65;;
35496;SDS011;21609;49.298;6.844;2023-03-14T15:55:32;2.28;;;0.95;;
35496;SDS011;21609;49.298;6.844;2023-03-14T15:57:58;1.17;;;0.60;;
35496;SDS011;21609;49.298;6.844;2023-03-14T16:00:25;1.05;;;0.47;;
35496;SDS011;21609;49.298;6.844;2023-03-14T16:02:51;1.55;;;0.73;;
35496;SDS011;21609;49.298;6.844;2023-03-14T16:05:17;2.05;;;0.65;;
35496;SDS011;21609;49.298;6.844;2023-03-14T16:07:44;1.73;;;0.82;;
35496;SDS011;21609;49.298;6.844;2023-03-14T16:10:10;1.63;;;0.63;;
35496;SDS011;21609;49.298;6.844;2023-03-14T16:12:37;3.70;;;0.93;;
35496;SDS011;21609;49.298;6.844;2023-03-14T16:15:02;4.45;;;0.80;;
35496;SDS011;21609;49.298;6.844;2023-03-14T16:17:28;1.30;;;0.63;;
35496;SDS011;21609;49.298;6.844;2023-03-14T16:19:54;1.83;;;0.57;;
35496;SDS011;21609;49.298;6.844;2023-03-14T16:22:20;1.55;;;0.52;;
35496;SDS011;21609;49.298;6.844;2023-03-14T16:24:45;0.88;;;0.65;;